<?xml version="1.0" encoding="UTF-8" standalone="no" ?>
<gpx xmlns="http://www.topografix.com/GPX/1/1" xmlns:xsi="http://www.w3.org/2001/XMLSchema-instance" xsi:schemaLocation="http://www.topografix.com/GPX/1/1 http://www.topografix.com/GPX/1/1/gpx.xsd" version="1.1" creator="VisuGPX - https://www.visugpx.com">
  <metadata>
    <name>PR9 La Cabanasse - Les Angles</name>
    <desc><![CDATA[PR 9 R]]></desc>
  </metadata>
  <trk>
    <name><![CDATA[13508046-PR9 - La Cabanasse - Les Angles]]></name>
    <trkseg>
      <trkpt lat="42.50249" lon="2.11338">
        <ele>1521</ele>
        <time>2021-08-06T09:11:38Z</time>
      </trkpt>
      <trkpt lat="42.50259" lon="2.11464">
        <ele>1519</ele>
        <time>2021-08-06T09:13:43Z</time>
      </trkpt>
      <trkpt lat="42.50246" lon="2.11535">
        <ele>1516</ele>
        <time>2021-08-06T09:14:55Z</time>
      </trkpt>
      <trkpt lat="42.50189" lon="2.11522">
        <ele>1510</ele>
        <time>2021-08-06T09:16:12Z</time>
      </trkpt>
      <trkpt lat="42.50139" lon="2.11559">
        <ele>1503</ele>
        <time>2021-08-06T09:17:28Z</time>
      </trkpt>
      <trkpt lat="42.50121" lon="2.11557">
        <ele>1502</ele>
        <time>2021-08-06T09:17:52Z</time>
      </trkpt>
      <trkpt lat="42.5011" lon="2.11542">
        <ele>1501</ele>
        <time>2021-08-06T09:18:13Z</time>
      </trkpt>
      <trkpt lat="42.50069" lon="2.11565">
        <ele>1497</ele>
        <time>2021-08-06T09:19:12Z</time>
      </trkpt>
      <trkpt lat="42.50109" lon="2.11806">
        <ele>1482</ele>
        <time>2021-08-06T09:23:15Z</time>
      </trkpt>
      <trkpt lat="42.50104" lon="2.117">
        <ele>1489</ele>
        <time>2021-08-06T09:24:59Z</time>
      </trkpt>
      <trkpt lat="42.5015" lon="2.11795">
        <ele>1484</ele>
        <time>2021-08-06T09:26:51Z</time>
      </trkpt>
      <trkpt lat="42.5017" lon="2.11863">
        <ele>1482</ele>
        <time>2021-08-06T09:28:03Z</time>
      </trkpt>
      <trkpt lat="42.50166" lon="2.119">
        <ele>1481</ele>
        <time>2021-08-06T09:28:40Z</time>
      </trkpt>
      <trkpt lat="42.5019" lon="2.11981">
        <ele>1484</ele>
        <time>2021-08-06T09:30:06Z</time>
      </trkpt>
      <trkpt lat="42.50204" lon="2.12058">
        <ele>1482</ele>
        <time>2021-08-06T09:31:24Z</time>
      </trkpt>
      <trkpt lat="42.50238" lon="2.12157">
        <ele>1477</ele>
        <time>2021-08-06T09:33:11Z</time>
      </trkpt>
      <trkpt lat="42.5025" lon="2.12204">
        <ele>1473</ele>
        <time>2021-08-06T09:34:00Z</time>
      </trkpt>
      <trkpt lat="42.5028" lon="2.12305">
        <ele>1473</ele>
        <time>2021-08-06T09:35:48Z</time>
      </trkpt>
      <trkpt lat="42.50305" lon="2.12396">
        <ele>1476</ele>
        <time>2021-08-06T09:37:23Z</time>
      </trkpt>
      <trkpt lat="42.5034" lon="2.12484">
        <ele>1471</ele>
        <time>2021-08-06T09:39:01Z</time>
      </trkpt>
      <trkpt lat="42.50387" lon="2.12546">
        <ele>1469</ele>
        <time>2021-08-06T09:40:29Z</time>
      </trkpt>
      <trkpt lat="42.50417" lon="2.12602">
        <ele>1456</ele>
        <time>2021-08-06T09:41:37Z</time>
      </trkpt>
      <trkpt lat="42.50438" lon="2.12659">
        <ele>1457</ele>
        <time>2021-08-06T09:42:40Z</time>
      </trkpt>
      <trkpt lat="42.50488" lon="2.12711">
        <ele>1458</ele>
        <time>2021-08-06T09:44:04Z</time>
      </trkpt>
      <trkpt lat="42.5049" lon="2.12786">
        <ele>1450</ele>
        <time>2021-08-06T09:45:18Z</time>
      </trkpt>
      <trkpt lat="42.50471" lon="2.12827">
        <ele>1443</ele>
        <time>2021-08-06T09:46:05Z</time>
      </trkpt>
      <trkpt lat="42.5043" lon="2.12896">
        <ele>1425</ele>
        <time>2021-08-06T09:47:32Z</time>
      </trkpt>
      <trkpt lat="42.5042" lon="2.12958">
        <ele>1413</ele>
        <time>2021-08-06T09:48:35Z</time>
      </trkpt>
      <trkpt lat="42.50429" lon="2.13011">
        <ele>1404</ele>
        <time>2021-08-06T09:49:28Z</time>
      </trkpt>
      <trkpt lat="42.50494" lon="2.13031">
        <ele>1405</ele>
        <time>2021-08-06T09:50:57Z</time>
      </trkpt>
      <trkpt lat="42.5053" lon="2.13001">
        <ele>1415</ele>
        <time>2021-08-06T09:51:54Z</time>
      </trkpt>
      <trkpt lat="42.50551" lon="2.12932">
        <ele>1426</ele>
        <time>2021-08-06T09:53:07Z</time>
      </trkpt>
      <trkpt lat="42.50592" lon="2.12968">
        <ele>1421</ele>
        <time>2021-08-06T09:54:12Z</time>
      </trkpt>
      <trkpt lat="42.50586" lon="2.13031">
        <ele>1420</ele>
        <time>2021-08-06T09:55:15Z</time>
      </trkpt>
      <trkpt lat="42.50564" lon="2.13105">
        <ele>1420</ele>
        <time>2021-08-06T09:56:33Z</time>
      </trkpt>
      <trkpt lat="42.50516" lon="2.13179">
        <ele>1404</ele>
        <time>2021-08-06T09:58:10Z</time>
      </trkpt>
      <trkpt lat="42.50521" lon="2.13268">
        <ele>1407</ele>
        <time>2021-08-06T09:59:38Z</time>
      </trkpt>
      <trkpt lat="42.50538" lon="2.13329">
        <ele>1414</ele>
        <time>2021-08-06T10:00:42Z</time>
      </trkpt>
      <trkpt lat="42.50508" lon="2.13412">
        <ele>1407</ele>
        <time>2021-08-06T10:02:13Z</time>
      </trkpt>
      <trkpt lat="42.50489" lon="2.1351">
        <ele>1408</ele>
        <time>2021-08-06T10:03:53Z</time>
      </trkpt>
      <trkpt lat="42.50496" lon="2.13555">
        <ele>1407</ele>
        <time>2021-08-06T10:04:38Z</time>
      </trkpt>
      <trkpt lat="42.50532" lon="2.13608">
        <ele>1410</ele>
        <time>2021-08-06T10:05:49Z</time>
      </trkpt>
      <trkpt lat="42.50585" lon="2.13656">
        <ele>1411</ele>
        <time>2021-08-06T10:07:14Z</time>
      </trkpt>
      <trkpt lat="42.50631" lon="2.13702">
        <ele>1410</ele>
        <time>2021-08-06T10:08:30Z</time>
      </trkpt>
      <trkpt lat="42.50675" lon="2.13743">
        <ele>1412</ele>
        <time>2021-08-06T10:09:42Z</time>
      </trkpt>
      <trkpt lat="42.50702" lon="2.13794">
        <ele>1407</ele>
        <time>2021-08-06T10:10:43Z</time>
      </trkpt>
      <trkpt lat="42.50742" lon="2.13841">
        <ele>1411</ele>
        <time>2021-08-06T10:11:54Z</time>
      </trkpt>
      <trkpt lat="42.507" lon="2.13924">
        <ele>1379</ele>
        <time>2021-08-06T10:13:33Z</time>
      </trkpt>
      <trkpt lat="42.50671" lon="2.13911">
        <ele>1366</ele>
        <time>2021-08-06T10:14:14Z</time>
      </trkpt>
      <trkpt lat="42.50611" lon="2.13868">
        <ele>1343</ele>
        <time>2021-08-06T10:15:44Z</time>
      </trkpt>
      <trkpt lat="42.50557" lon="2.13826">
        <ele>1330</ele>
        <time>2021-08-06T10:17:07Z</time>
      </trkpt>
      <trkpt lat="42.50481" lon="2.13777">
        <ele>1326</ele>
        <time>2021-08-06T10:19:00Z</time>
      </trkpt>
      <trkpt lat="42.50419" lon="2.13751">
        <ele>1322</ele>
        <time>2021-08-06T10:20:26Z</time>
      </trkpt>
      <trkpt lat="42.50366" lon="2.13776">
        <ele>1338</ele>
        <time>2021-08-06T10:21:41Z</time>
      </trkpt>
      <trkpt lat="42.50314" lon="2.13787">
        <ele>1356</ele>
        <time>2021-08-06T10:22:51Z</time>
      </trkpt>
      <trkpt lat="42.5025" lon="2.1374">
        <ele>1360</ele>
        <time>2021-08-06T10:24:29Z</time>
      </trkpt>
      <trkpt lat="42.50175" lon="2.1367">
        <ele>1368</ele>
        <time>2021-08-06T10:26:30Z</time>
      </trkpt>
      <trkpt lat="42.50124" lon="2.1365">
        <ele>1377</ele>
        <time>2021-08-06T10:27:41Z</time>
      </trkpt>
      <trkpt lat="42.50075" lon="2.13646">
        <ele>1383</ele>
        <time>2021-08-06T10:28:46Z</time>
      </trkpt>
      <trkpt lat="42.49982" lon="2.1368">
        <ele>1397</ele>
        <time>2021-08-06T10:30:55Z</time>
      </trkpt>
      <trkpt lat="42.49922" lon="2.13641">
        <ele>1406</ele>
        <time>2021-08-06T10:32:24Z</time>
      </trkpt>
      <trkpt lat="42.49871" lon="2.13615">
        <ele>1408</ele>
        <time>2021-08-06T10:33:36Z</time>
      </trkpt>
      <trkpt lat="42.4981" lon="2.13621">
        <ele>1414</ele>
        <time>2021-08-06T10:34:58Z</time>
      </trkpt>
      <trkpt lat="42.49803" lon="2.13678">
        <ele>1421</ele>
        <time>2021-08-06T10:35:55Z</time>
      </trkpt>
      <trkpt lat="42.4977" lon="2.13756">
        <ele>1430</ele>
        <time>2021-08-06T10:37:23Z</time>
      </trkpt>
      <trkpt lat="42.49733" lon="2.13877">
        <ele>1453</ele>
        <time>2021-08-06T10:39:32Z</time>
      </trkpt>
      <trkpt lat="42.49694" lon="2.13913">
        <ele>1455</ele>
        <time>2021-08-06T10:40:35Z</time>
      </trkpt>
      <trkpt lat="42.49623" lon="2.1395">
        <ele>1463</ele>
        <time>2021-08-06T10:42:17Z</time>
      </trkpt>
      <trkpt lat="42.49511" lon="2.14001">
        <ele>1474</ele>
        <time>2021-08-06T10:44:54Z</time>
      </trkpt>
      <trkpt lat="42.49438" lon="2.14051">
        <ele>1486</ele>
        <time>2021-08-06T10:46:43Z</time>
      </trkpt>
      <trkpt lat="42.49356" lon="2.1408">
        <ele>1496</ele>
        <time>2021-08-06T10:48:37Z</time>
      </trkpt>
      <trkpt lat="42.4933" lon="2.14115">
        <ele>1505</ele>
        <time>2021-08-06T10:49:25Z</time>
      </trkpt>
      <trkpt lat="42.49255" lon="2.14033">
        <ele>1507</ele>
        <time>2021-08-06T10:51:34Z</time>
      </trkpt>
      <trkpt lat="42.49229" lon="2.1395">
        <ele>1508</ele>
        <time>2021-08-06T10:53:03Z</time>
      </trkpt>
      <trkpt lat="42.49227" lon="2.13889">
        <ele>1507</ele>
        <time>2021-08-06T10:54:03Z</time>
      </trkpt>
      <trkpt lat="42.49245" lon="2.13819">
        <ele>1503</ele>
        <time>2021-08-06T10:55:16Z</time>
      </trkpt>
      <trkpt lat="42.49252" lon="2.13741">
        <ele>1505</ele>
        <time>2021-08-06T10:56:33Z</time>
      </trkpt>
      <trkpt lat="42.49201" lon="2.13718">
        <ele>1517</ele>
        <time>2021-08-06T10:57:45Z</time>
      </trkpt>
      <trkpt lat="42.4929" lon="2.13667">
        <ele>1516</ele>
        <time>2021-08-06T10:59:54Z</time>
      </trkpt>
      <trkpt lat="42.49346" lon="2.13647">
        <ele>1520</ele>
        <time>2021-08-06T11:01:11Z</time>
      </trkpt>
      <trkpt lat="42.49393" lon="2.13591">
        <ele>1530</ele>
        <time>2021-08-06T11:02:35Z</time>
      </trkpt>
      <trkpt lat="42.49376" lon="2.13561">
        <ele>1531</ele>
        <time>2021-08-06T11:03:12Z</time>
      </trkpt>
      <trkpt lat="42.49344" lon="2.13555">
        <ele>1532</ele>
        <time>2021-08-06T11:03:55Z</time>
      </trkpt>
      <trkpt lat="42.49304" lon="2.13564">
        <ele>1534</ele>
        <time>2021-08-06T11:04:49Z</time>
      </trkpt>
      <trkpt lat="42.49182" lon="2.13561">
        <ele>1550</ele>
        <time>2021-08-06T11:07:32Z</time>
      </trkpt>
      <trkpt lat="42.4909" lon="2.13556">
        <ele>1566</ele>
        <time>2021-08-06T11:09:35Z</time>
      </trkpt>
      <trkpt lat="42.49033" lon="2.13534">
        <ele>1574</ele>
        <time>2021-08-06T11:10:54Z</time>
      </trkpt>
      <trkpt lat="42.49009" lon="2.13501">
        <ele>1583</ele>
        <time>2021-08-06T11:11:39Z</time>
      </trkpt>
      <trkpt lat="42.48969" lon="2.1348">
        <ele>1587</ele>
        <time>2021-08-06T11:12:37Z</time>
      </trkpt>
      <trkpt lat="42.48863" lon="2.13458">
        <ele>1610</ele>
        <time>2021-08-06T11:15:00Z</time>
      </trkpt>
      <trkpt lat="42.48846" lon="2.1342">
        <ele>1619</ele>
        <time>2021-08-06T11:15:43Z</time>
      </trkpt>
      <trkpt lat="42.48717" lon="2.13263">
        <ele>1657</ele>
        <time>2021-08-06T11:19:35Z</time>
      </trkpt>
      <trkpt lat="42.48638" lon="2.13171">
        <ele>1680</ele>
        <time>2021-08-06T11:21:54Z</time>
      </trkpt>
      <trkpt lat="42.48512" lon="2.13021">
        <ele>1716</ele>
        <time>2021-08-06T11:25:37Z</time>
      </trkpt>
      <trkpt lat="42.48532" lon="2.12895">
        <ele>1706</ele>
        <time>2021-08-06T11:27:44Z</time>
      </trkpt>
      <trkpt lat="42.48551" lon="2.12801">
        <ele>1694</ele>
        <time>2021-08-06T11:29:20Z</time>
      </trkpt>
      <trkpt lat="42.48541" lon="2.12736">
        <ele>1690</ele>
        <time>2021-08-06T11:30:26Z</time>
      </trkpt>
      <trkpt lat="42.48516" lon="2.12695">
        <ele>1690</ele>
        <time>2021-08-06T11:31:18Z</time>
      </trkpt>
      <trkpt lat="42.48452" lon="2.12532">
        <ele>1676</ele>
        <time>2021-08-06T11:34:20Z</time>
      </trkpt>
      <trkpt lat="42.48412" lon="2.12422">
        <ele>1661</ele>
        <time>2021-08-06T11:36:20Z</time>
      </trkpt>
      <trkpt lat="42.48393" lon="2.12386">
        <ele>1657</ele>
        <time>2021-08-06T11:37:04Z</time>
      </trkpt>
      <trkpt lat="42.48358" lon="2.12366">
        <ele>1661</ele>
        <time>2021-08-06T11:37:55Z</time>
      </trkpt>
      <trkpt lat="42.48326" lon="2.12378">
        <ele>1668</ele>
        <time>2021-08-06T11:38:39Z</time>
      </trkpt>
      <trkpt lat="42.48346" lon="2.12333">
        <ele>1662</ele>
        <time>2021-08-06T11:39:31Z</time>
      </trkpt>
      <trkpt lat="42.48383" lon="2.12211">
        <ele>1654</ele>
        <time>2021-08-06T11:41:40Z</time>
      </trkpt>
      <trkpt lat="42.48413" lon="2.12167">
        <ele>1643</ele>
        <time>2021-08-06T11:42:39Z</time>
      </trkpt>
      <trkpt lat="42.48387" lon="2.12084">
        <ele>1653</ele>
        <time>2021-08-06T11:44:08Z</time>
      </trkpt>
      <trkpt lat="42.48401" lon="2.1199">
        <ele>1652</ele>
        <time>2021-08-06T11:45:42Z</time>
      </trkpt>
      <trkpt lat="42.48409" lon="2.11893">
        <ele>1652</ele>
        <time>2021-08-06T11:47:19Z</time>
      </trkpt>
      <trkpt lat="42.48432" lon="2.11727">
        <ele>1659</ele>
        <time>2021-08-06T11:50:05Z</time>
      </trkpt>
      <trkpt lat="42.48448" lon="2.11598">
        <ele>1668</ele>
        <time>2021-08-06T11:52:14Z</time>
      </trkpt>
      <trkpt lat="42.4844" lon="2.11459">
        <ele>1686</ele>
        <time>2021-08-06T11:54:31Z</time>
      </trkpt>
      <trkpt lat="42.48454" lon="2.11346">
        <ele>1693</ele>
        <time>2021-08-06T11:56:23Z</time>
      </trkpt>
      <trkpt lat="42.48434" lon="2.11268">
        <ele>1694</ele>
        <time>2021-08-06T11:57:45Z</time>
      </trkpt>
      <trkpt lat="42.48393" lon="2.11209">
        <ele>1694</ele>
        <time>2021-08-06T11:59:05Z</time>
      </trkpt>
      <trkpt lat="42.48338" lon="2.11148">
        <ele>1696</ele>
        <time>2021-08-06T12:00:39Z</time>
      </trkpt>
      <trkpt lat="42.48323" lon="2.11112">
        <ele>1698</ele>
        <time>2021-08-06T12:01:20Z</time>
      </trkpt>
      <trkpt lat="42.48318" lon="2.11011">
        <ele>1698</ele>
        <time>2021-08-06T12:03:00Z</time>
      </trkpt>
      <trkpt lat="42.48309" lon="2.1094">
        <ele>1697</ele>
        <time>2021-08-06T12:04:11Z</time>
      </trkpt>
      <trkpt lat="42.48349" lon="2.10811">
        <ele>1692</ele>
        <time>2021-08-06T12:06:28Z</time>
      </trkpt>
      <trkpt lat="42.4837" lon="2.10735">
        <ele>1692</ele>
        <time>2021-08-06T12:07:48Z</time>
      </trkpt>
      <trkpt lat="42.48341" lon="2.10706">
        <ele>1696</ele>
        <time>2021-08-06T12:08:36Z</time>
      </trkpt>
      <trkpt lat="42.48367" lon="2.10619">
        <ele>1697</ele>
        <time>2021-08-06T12:10:09Z</time>
      </trkpt>
      <trkpt lat="42.4845" lon="2.10626">
        <ele>1685</ele>
        <time>2021-08-06T12:12:00Z</time>
      </trkpt>
      <trkpt lat="42.48525" lon="2.10648">
        <ele>1674</ele>
        <time>2021-08-06T12:13:42Z</time>
      </trkpt>
      <trkpt lat="42.48577" lon="2.10693">
        <ele>1665</ele>
        <time>2021-08-06T12:15:04Z</time>
      </trkpt>
      <trkpt lat="42.48597" lon="2.10741">
        <ele>1661</ele>
        <time>2021-08-06T12:15:59Z</time>
      </trkpt>
      <trkpt lat="42.48663" lon="2.10774">
        <ele>1654</ele>
        <time>2021-08-06T12:17:32Z</time>
      </trkpt>
      <trkpt lat="42.48727" lon="2.10794">
        <ele>1645</ele>
        <time>2021-08-06T12:19:00Z</time>
      </trkpt>
      <trkpt lat="42.48792" lon="2.10882">
        <ele>1640</ele>
        <time>2021-08-06T12:21:03Z</time>
      </trkpt>
      <trkpt lat="42.48891" lon="2.10994">
        <ele>1640</ele>
        <time>2021-08-06T12:23:55Z</time>
      </trkpt>
      <trkpt lat="42.4893" lon="2.11052">
        <ele>1638</ele>
        <time>2021-08-06T12:25:12Z</time>
      </trkpt>
      <trkpt lat="42.48987" lon="2.11113">
        <ele>1629</ele>
        <time>2021-08-06T12:26:49Z</time>
      </trkpt>
      <trkpt lat="42.4901" lon="2.11153">
        <ele>1626</ele>
        <time>2021-08-06T12:27:39Z</time>
      </trkpt>
      <trkpt lat="42.4903" lon="2.11223">
        <ele>1625</ele>
        <time>2021-08-06T12:28:53Z</time>
      </trkpt>
      <trkpt lat="42.49086" lon="2.11345">
        <ele>1622</ele>
        <time>2021-08-06T12:31:14Z</time>
      </trkpt>
      <trkpt lat="42.49137" lon="2.11415">
        <ele>1617</ele>
        <time>2021-08-06T12:32:51Z</time>
      </trkpt>
      <trkpt lat="42.49155" lon="2.11507">
        <ele>1611</ele>
        <time>2021-08-06T12:34:25Z</time>
      </trkpt>
      <trkpt lat="42.4915" lon="2.11591">
        <ele>1609</ele>
        <time>2021-08-06T12:35:47Z</time>
      </trkpt>
      <trkpt lat="42.49176" lon="2.11721">
        <ele>1600</ele>
        <time>2021-08-06T12:38:00Z</time>
      </trkpt>
      <trkpt lat="42.49202" lon="2.11783">
        <ele>1596</ele>
        <time>2021-08-06T12:39:10Z</time>
      </trkpt>
      <trkpt lat="42.49239" lon="2.1184">
        <ele>1595</ele>
        <time>2021-08-06T12:40:25Z</time>
      </trkpt>
      <trkpt lat="42.49299" lon="2.11936">
        <ele>1591</ele>
        <time>2021-08-06T12:42:29Z</time>
      </trkpt>
      <trkpt lat="42.49376" lon="2.11875">
        <ele>1584</ele>
        <time>2021-08-06T12:44:28Z</time>
      </trkpt>
      <trkpt lat="42.4944" lon="2.11875">
        <ele>1579</ele>
        <time>2021-08-06T12:45:53Z</time>
      </trkpt>
      <trkpt lat="42.49519" lon="2.11891">
        <ele>1572</ele>
        <time>2021-08-06T12:47:40Z</time>
      </trkpt>
      <trkpt lat="42.49572" lon="2.11882">
        <ele>1566</ele>
        <time>2021-08-06T12:48:51Z</time>
      </trkpt>
      <trkpt lat="42.4958" lon="2.11956">
        <ele>1566</ele>
        <time>2021-08-06T12:50:05Z</time>
      </trkpt>
      <trkpt lat="42.49656" lon="2.11963">
        <ele>1557</ele>
        <time>2021-08-06T12:51:46Z</time>
      </trkpt>
      <trkpt lat="42.49705" lon="2.11994">
        <ele>1551</ele>
        <time>2021-08-06T12:52:58Z</time>
      </trkpt>
      <trkpt lat="42.49723" lon="2.12051">
        <ele>1549</ele>
        <time>2021-08-06T12:53:59Z</time>
      </trkpt>
      <trkpt lat="42.49739" lon="2.12173">
        <ele>1546</ele>
        <time>2021-08-06T12:56:01Z</time>
      </trkpt>
      <trkpt lat="42.49751" lon="2.12296">
        <ele>1539</ele>
        <time>2021-08-06T12:58:03Z</time>
      </trkpt>
      <trkpt lat="42.49774" lon="2.12366">
        <ele>1534</ele>
        <time>2021-08-06T12:59:19Z</time>
      </trkpt>
      <trkpt lat="42.49815" lon="2.12471">
        <ele>1528</ele>
        <time>2021-08-06T13:01:16Z</time>
      </trkpt>
      <trkpt lat="42.4989" lon="2.12574">
        <ele>1527</ele>
        <time>2021-08-06T13:03:38Z</time>
      </trkpt>
      <trkpt lat="42.49942" lon="2.12509">
        <ele>1524</ele>
        <time>2021-08-06T13:05:13Z</time>
      </trkpt>
      <trkpt lat="42.50026" lon="2.12371">
        <ele>1518</ele>
        <time>2021-08-06T13:08:09Z</time>
      </trkpt>
      <trkpt lat="42.5006" lon="2.12245">
        <ele>1507</ele>
        <time>2021-08-06T13:10:21Z</time>
      </trkpt>
      <trkpt lat="42.50013" lon="2.12144">
        <ele>1508</ele>
        <time>2021-08-06T13:12:18Z</time>
      </trkpt>
      <trkpt lat="42.50061" lon="2.1209">
        <ele>1489</ele>
        <time>2021-08-06T13:13:41Z</time>
      </trkpt>
      <trkpt lat="42.5004" lon="2.12032">
        <ele>1499</ele>
        <time>2021-08-06T13:14:45Z</time>
      </trkpt>
      <trkpt lat="42.50098" lon="2.11926">
        <ele>1482</ele>
        <time>2021-08-06T13:16:55Z</time>
      </trkpt>
      <trkpt lat="42.50171" lon="2.11868">
        <ele>1482</ele>
        <time>2021-08-06T13:18:48Z</time>
      </trkpt>
      <trkpt lat="42.50162" lon="2.11779">
        <ele>1485</ele>
        <time>2021-08-06T13:20:16Z</time>
      </trkpt>
      <trkpt lat="42.50175" lon="2.11696">
        <ele>1494</ele>
        <time>2021-08-06T13:21:40Z</time>
      </trkpt>
      <trkpt lat="42.50238" lon="2.11644">
        <ele>1504</ele>
        <time>2021-08-06T13:23:18Z</time>
      </trkpt>
      <trkpt lat="42.50256" lon="2.11545">
        <ele>1517</ele>
        <time>2021-08-06T13:24:58Z</time>
      </trkpt>
      <trkpt lat="42.50263" lon="2.11326">
        <ele>1523</ele>
        <time>2021-08-06T13:28:34Z</time>
      </trkpt>
    </trkseg>
  </trk>
</gpx>